sensor_id;sensor_type;location;lat;lon;timestamp;P1;durP1;ratioP1;P2;durP2;ratioP2
22652;SDS011;11493;43.344;26.226;2024-01-15T00:00:11;67.47;;;29.77;;
22652;SDS011;11493;43.344;26.226;2024-01-15T00:02:39;68.68;;;31.08;;
22652;SDS011;11493;43.344;26.226;2024-01-15T00:05:06;37.03;;;18.90;;
22652;SDS011;11493;43.344;26.226;2024-01-15T00:07:33;48.65;;;23.73;;
22652;SDS011;11493;43.344;26.226;2024-01-15T00:09:59;54.13;;;26.98;;
22652;SDS011;11493;43.344;26.226;2024-01-15T00:12:28;56.00;;;27.98;;
22652;SDS011;11493;43.344;26.226;2024-01-15T00:14:55;54.47;;;27.15;;
22652;SDS011;11493;43.344;26.226;2024-01-15T00:17:22;57.85;;;27.63;;
22652;SDS011;11493;43.344;26.226;2024-01-15T00:19:48;51.40;;;25.00;;
22652;SDS011;11493;43.344;26.226;2024-01-15T00:22:15;46.90;;;22.70;;
22652;SDS011;11493;43.344;26.226;2024-01-15T00:24:42;32.38;;;17.88;;
22652;SDS011;11493;43.344;26.226;2024-01-15T00:27:09;35.75;;;16.52;;
22652;SDS011;11493;43.344;26.226;2024-01-15T00:29:36;32.40;;;17.48;;
22652;SDS011;11493;43.344;26.226;2024-01-15T00:32:03;37.10;;;17.80;;
22652;SDS011;11493;43.344;26.226;2024-01-15T00:34:30;30.33;;;14.88;;
22652;SDS011;11493;43.344;26.226;2024-01-15T00:36:58;26.17;;;14.15;;
22652;SDS011;11493;43.344;26.226;2024-01-15T00:39:25;28.52;;;14.45;;
22652;SDS011;11493;43.344;26.226;2024-01-15T00:41:52;19.58;;;11.55;;
22652;SDS011;11493;43.344;26.226;2024-01-15T00:44:19;19.63;;;10.20;;
22652;SDS011;11493;43.344;26.226;2024-01-15T00:46:46;17.73;;;10.45;;
22652;SDS011;11493;43.344;26.226;2024-01-15T00:49:13;16.17;;;9.88;;
22652;SDS011;11493;43.344;26.226;2024-01-15T00:51:40;15.65;;;9.63;;
22652;SDS011;11493;43.344;26.226;2024-01-15T00:54:08;19.85;;;10.05;;
22652;SDS011;11493;43.344;26.226;2024-01-15T00:56:35;17.17;;;10.15;;
22652;SDS011;11493;43.344;26.226;2024-01-15T00:59:02;19.73;;;11.35;;
22652;SDS011;11493;43.344;26.226;2024-01-15T01:01:29;18.00;;;10.63;;
22652;SDS011;11493;43.344;26.226;2024-01-15T01:03:56;22.42;;;12.20;;
22652;SDS011;11493;43.344;26.226;2024-01-15T01:06:23;28.38;;;13.52;;
22652;SDS011;11493;43.344;26.226;2024-01-15T01:08:51;26.52;;;13.90;;
22652;SDS011;11493;43.344;26.226;2024-01-15T01:11:18;22.40;;;13.20;;
22652;SDS011;11493;43.344;26.226;2024-01-15T01:13:45;20.50;;;12.23;;
22652;SDS011;11493;43.344;26.226;2024-01-15T01:16:12;19.50;;;11.25;;
22652;SDS011;11493;43.344;26.226;2024-01-15T01:18:39;19.52;;;9.98;;
22652;SDS011;11493;43.344;26.226;2024-01-15T01:21:06;21.95;;;11.48;;
22652;SDS011;11493;43.344;26.226;2024-01-15T01:23:33;23.42;;;12.93;;
22652;SDS011;11493;43.344;26.226;2024-01-15T01:26:00;33.17;;;17.75;;
22652;SDS011;11493;43.344;26.226;2024-01-15T01:28:27;24.35;;;12.55;;
22652;SDS011;11493;43.344;26.226;2024-01-15T01:30:54;25.42;;;16.83;;
22652;SDS011;11493;43.344;26.226;2024-01-15T01:33:21;21.83;;;11.75;;
22652;SDS011;11493;43.344;26.226;2024-01-15T01:35:48;18.77;;;10.85;;
22652;SDS011;11493;43.344;26.226;2024-01-15T01:38:15;21.15;;;11.35;;
22652;SDS011;11493;43.344;26.226;2024-01-15T01:40:42;19.27;;;10.70;;
22652;SDS011;11493;43.344;26.226;2024-01-15T01:43:09;22.90;;;10.88;;
22652;SDS011;11493;43.344;26.226;2024-01-15T01:45:37;19.55;;;10.10;;
22652;SDS011;11493;43.344;26.226;2024-01-15T01:48:05;18.08;;;9.00;;
22652;SDS011;11493;43.344;26.226;2024-01-15T01:50:33;17.40;;;8.65;;
22652;SDS011;11493;43.344;26.226;2024-01-15T01:53:00;18.23;;;8.68;;
22652;SDS011;11493;43.344;26.226;2024-01-15T01:55:30;12.10;;;7.57;;
22652;SDS011;11493;43.344;26.226;2024-01-15T01:58:00;12.60;;;7.97;;
22652;SDS011;11493;43.344;26.226;2024-01-15T02:00:28;15.90;;;8.00;;
22652;SDS011;11493;43.344;26.226;2024-01-15T02:02:55;15.48;;;7.88;;
22652;SDS011;11493;43.344;26.226;2024-01-15T02:05:22;15.95;;;8.55;;
22652;SDS011;11493;43.344;26.226;2024-01-15T02:07:49;12.80;;;8.55;;
22652;SDS011;11493;43.344;26.226;2024-01-15T02:10:16;24.27;;;10.05;;
22652;SDS011;11493;43.344;26.226;2024-01-15T02:12:43;19.85;;;10.20;;
22652;SDS011;11493;43.344;26.226;2024-01-15T02:15:11;20.45;;;9.35;;
22652;SDS011;11493;43.344;26.226;2024-01-15T02:20:26;20.85;;;9.93;;
22652;SDS011;11493;43.344;26.226;2024-01-15T02:22:53;22.25;;;11.13;;
22652;SDS011;11493;43.344;26.226;2024-01-15T02:25:20;16.52;;;10.23;;
22652;SDS011;11493;43.344;26.226;2024-01-15T02:27:47;24.58;;;10.77;;
22652;SDS011;11493;43.344;26.226;2024-01-15T02:30:14;21.95;;;11.07;;
22652;SDS011;11493;43.344;26.226;2024-01-15T02:32:42;26.30;;;13.40;;
22652;SDS011;11493;43.344;26.226;2024-01-15T02:35:09;33.47;;;14.85;;
22652;SDS011;11493;43.344;26.226;2024-01-15T02:37:36;40.15;;;17.92;;
22652;SDS011;11493;43.344;26.226;2024-01-15T02:40:03;42.88;;;17.83;;
22652;SDS011;11493;43.344;26.226;2024-01-15T02:42:30;37.60;;;17.95;;
22652;SDS011;11493;43.344;26.226;2024-01-15T02:44:57;37.78;;;18.42;;
22652;SDS011;11493;43.344;26.226;2024-01-15T02:47:24;39.53;;;17.27;;
22652;SDS011;11493;43.344;26.226;2024-01-15T02:49:51;36.05;;;17.75;;
22652;SDS011;11493;43.344;26.226;2024-01-15T02:52:18;34.25;;;17.58;;
22652;SDS011;11493;43.344;26.226;2024-01-15T02:54:45;31.48;;;17.13;;
22652;SDS011;11493;43.344;26.226;2024-01-15T02:57:12;40.72;;;21.45;;
22652;SDS011;11493;43.344;26.226;2024-01-15T02:59:39;59.47;;;26.70;;
22652;SDS011;11493;43.344;26.226;2024-01-15T03:02:05;51.15;;;24.45;;
22652;SDS011;11493;43.344;26.226;2024-01-15T03:04:32;42.17;;;23.77;;
22652;SDS011;11493;43.344;26.226;2024-01-15T03:06:59;45.13;;;23.58;;
22652;SDS011;11493;43.344;26.226;2024-01-15T03:09:26;44.28;;;22.80;;
22652;SDS011;11493;43.344;26.226;2024-01-15T03:11:53;43.90;;;22.92;;
22652;SDS011;11493;43.344;26.226;2024-01-15T03:14:20;48.42;;;22.48;;
22652;SDS011;11493;43.344;26.226;2024-01-15T03:16:47;36.42;;;19.42;;
22652;SDS011;11493;43.344;26.226;2024-01-15T03:19:13;41.20;;;19.67;;
22652;SDS011;11493;43.344;26.226;2024-01-15T03:21:41;31.52;;;17.10;;
22652;SDS011;11493;43.344;26.226;2024-01-15T03:24:07;41.40;;;19.15;;
22652;SDS011;11493;43.344;26.226;2024-01-15T03:26:34;33.90;;;18.05;;
22652;SDS011;11493;43.344;26.226;2024-01-15T03:29:01;43.72;;;19.85;;
22652;SDS011;11493;43.344;26.226;2024-01-15T03:31:28;43.63;;;20.70;;
22652;SDS011;11493;43.344;26.226;2024-01-15T03:33:55;40.65;;;18.65;;
22652;SDS011;11493;43.344;26.226;2024-01-15T03:36:22;35.75;;;18.30;;
22652;SDS011;11493;43.344;26.226;2024-01-15T03:38:49;38.03;;;18.35;;
22652;SDS011;11493;43.344;26.226;2024-01-15T03:41:16;43.92;;;17.40;;
22652;SDS011;11493;43.344;26.226;2024-01-15T03:43:43;33.70;;;17.73;;
22652;SDS011;11493;43.344;26.226;2024-01-15T03:46:10;35.75;;;17.70;;
22652;SDS011;11493;43.344;26.226;2024-01-15T03:48:37;32.05;;;17.38;;
22652;SDS011;11493;43.344;26.226;2024-01-15T03:51:04;55.15;;;26.08;;
22652;SDS011;11493;43.344;26.226;2024-01-15T03:53:31;42.83;;;22.17;;
22652;SDS011;11493;43.344;26.226;2024-01-15T03:55:58;45.97;;;22.38;;
22652;SDS011;11493;43.344;26.226;2024-01-15T03:58:25;65.68;;;29.38;;
22652;SDS011;11493;43.344;26.226;2024-01-15T04:00:52;63.17;;;28.88;;
22652;SDS011;11493;43.344;26.226;2024-01-15T04:03:19;65.22;;;27.63;;
22652;SDS011;11493;43.344;26.226;2024-01-15T04:05:46;60.20;;;26.25;;
22652;SDS011;11493;43.344;26.226;2024-01-15T04:08:13;49.80;;;24.13;;
22652;SDS011;11493;43.344;26.226;2024-01-15T04:10:40;54.80;;;24.75;;
22652;SDS011;11493;43.344;26.226;2024-01-15T04:13:08;57.05;;;26.70;;
22652;SDS011;11493;43.344;26.226;2024-01-15T04:15:34;48.35;;;23.83;;
22652;SDS011;11493;43.344;26.226;2024-01-15T04:18:02;49.97;;;22.98;;
22652;SDS011;11493;43.344;26.226;2024-01-15T04:20:30;53.33;;;26.25;;
22652;SDS011;11493;43.344;26.226;2024-01-15T04:22:57;50.03;;;23.35;;
22652;SDS011;11493;43.344;26.226;2024-01-15T04:25:24;67.18;;;27.42;;
22652;SDS011;11493;43.344;26.226;2024-01-15T04:27:51;50.03;;;24.48;;
22652;SDS011;11493;43.344;26.226;2024-01-15T04:30:18;54.05;;;27.20;;
22652;SDS011;11493;43.344;26.226;2024-01-15T04:32:45;53.72;;;26.50;;
22652;SDS011;11493;43.344;26.226;2024-01-15T04:35:12;59.47;;;27.92;;
22652;SDS011;11493;43.344;26.226;2024-01-15T04:37:39;59.58;;;27.58;;
22652;SDS011;11493;43.344;26.226;2024-01-15T04:40:07;61.92;;;28.83;;
22652;SDS011;11493;43.344;26.226;2024-01-15T04:42:35;58.08;;;28.77;;
22652;SDS011;11493;43.344;26.226;2024-01-15T04:45:02;65.25;;;29.30;;
22652;SDS011;11493;43.344;26.226;2024-01-15T04:47:30;64.30;;;29.42;;
22652;SDS011;11493;43.344;26.226;2024-01-15T04:49:57;64.22;;;30.17;;
22652;SDS011;11493;43.344;26.226;2024-01-15T04:52:24;71.20;;;32.97;;
22652;SDS011;11493;43.344;26.226;2024-01-15T04:54:50;66.32;;;31.25;;
22652;SDS011;11493;43.344;26.226;2024-01-15T04:57:18;69.03;;;32.10;;
22652;SDS011;11493;43.344;26.226;2024-01-15T04:59:45;60.22;;;29.20;;
22652;SDS011;11493;43.344;26.226;2024-01-15T05:02:11;69.68;;;30.17;;
22652;SDS011;11493;43.344;26.226;2024-01-15T05:04:38;82.55;;;34.88;;
22652;SDS011;11493;43.344;26.226;2024-01-15T05:07:06;70.78;;;33.15;;
22652;SDS011;11493;43.344;26.226;2024-01-15T05:09:33;57.17;;;26.80;;
22652;SDS011;11493;43.344;26.226;2024-01-15T05:12:00;63.55;;;28.92;;
22652;SDS011;11493;43.344;26.226;2024-01-15T05:14:27;54.90;;;26.95;;
22652;SDS011;11493;43.344;26.226;2024-01-15T05:16:54;48.60;;;24.17;;
22652;SDS011;11493;43.344;26.226;2024-01-15T05:19:20;39.53;;;21.35;;
22652;SDS011;11493;43.344;26.226;2024-01-15T05:21:48;61.22;;;24.70;;
22652;SDS011;11493;43.344;26.226;2024-01-15T05:24:15;53.88;;;26.02;;
22652;SDS011;11493;43.344;26.226;2024-01-15T05:26:42;64.70;;;29.23;;
22652;SDS011;11493;43.344;26.226;2024-01-15T05:29:09;75.10;;;33.55;;
22652;SDS011;11493;43.344;26.226;2024-01-15T05:31:36;61.67;;;31.48;;
22652;SDS011;11493;43.344;26.226;2024-01-15T05:34:03;50.40;;;25.58;;
22652;SDS011;11493;43.344;26.226;2024-01-15T05:36:30;60.38;;;30.75;;
22652;SDS011;11493;43.344;26.226;2024-01-15T05:38:57;68.20;;;31.23;;
22652;SDS011;11493;43.344;26.226;2024-01-15T05:41:24;63.65;;;30.38;;
22652;SDS011;11493;43.344;26.226;2024-01-15T05:43:51;54.42;;;29.30;;
22652;SDS011;11493;43.344;26.226;2024-01-15T05:46:18;54.60;;;28.90;;
22652;SDS011;11493;43.344;26.226;2024-01-15T05:48:45;46.33;;;22.80;;
22652;SDS011;11493;43.344;26.226;2024-01-15T05:51:12;63.95;;;29.10;;
22652;SDS011;11493;43.344;26.226;2024-01-15T05:53:39;64.05;;;31.50;;
22652;SDS011;11493;43.344;26.226;2024-01-15T05:56:09;24.67;;;14.82;;
22652;SDS011;11493;43.344;26.226;2024-01-15T05:58:37;37.13;;;18.70;;
22652;SDS011;11493;43.344;26.226;2024-01-15T06:01:04;51.95;;;22.70;;
22652;SDS011;11493;43.344;26.226;2024-01-15T06:03:31;54.05;;;28.92;;
22652;SDS011;11493;43.344;26.226;2024-01-15T06:05:58;84.55;;;45.85;;
22652;SDS011;11493;43.344;26.226;2024-01-15T06:08:25;82.70;;;45.97;;
22652;SDS011;11493;43.344;26.226;2024-01-15T06:10:56;57.55;;;31.88;;
22652;SDS011;11493;43.344;26.226;2024-01-15T06:13:27;51.42;;;28.45;;
22652;SDS011;11493;43.344;26.226;2024-01-15T06:15:54;61.03;;;30.92;;
22652;SDS011;11493;43.344;26.226;2024-01-15T06:18:20;53.03;;;28.15;;
22652;SDS011;11493;43.344;26.226;2024-01-15T06:20:48;58.22;;;28.75;;
22652;SDS011;11493;43.344;26.226;2024-01-15T06:23:14;56.42;;;29.27;;
22652;SDS011;11493;43.344;26.226;2024-01-15T06:25:45;85.63;;;40.33;;
22652;SDS011;11493;43.344;26.226;2024-01-15T06:28:12;52.90;;;28.48;;
22652;SDS011;11493;43.344;26.226;2024-01-15T06:30:39;51.90;;;27.23;;
22652;SDS011;11493;43.344;26.226;2024-01-15T06:33:06;61.05;;;30.25;;
22652;SDS011;11493;43.344;26.226;2024-01-15T06:35:33;57.60;;;32.83;;
22652;SDS011;11493;43.344;26.226;2024-01-15T06:38:01;49.05;;;26.67;;
22652;SDS011;11493;43.344;26.226;2024-01-15T06:40:28;43.05;;;24.80;;
22652;SDS011;11493;43.344;26.226;2024-01-15T06:42:54;57.30;;;27.98;;
22652;SDS011;11493;43.344;26.226;2024-01-15T06:45:22;146.88;;;60.95;;
22652;SDS011;11493;43.344;26.226;2024-01-15T06:47:49;57.95;;;29.35;;
22652;SDS011;11493;43.344;26.226;2024-01-15T06:50:16;46.20;;;23.85;;
22652;SDS011;11493;43.344;26.226;2024-01-15T06:52:42;37.67;;;18.92;;
22652;SDS011;11493;43.344;26.226;2024-01-15T06:55:09;28.10;;;16.00;;
22652;SDS011;11493;43.344;26.226;2024-01-15T06:57:36;41.90;;;22.48;;
22652;SDS011;11493;43.344;26.226;2024-01-15T07:00:03;49.22;;;22.05;;
22652;SDS011;11493;43.344;26.226;2024-01-15T07:02:34;55.63;;;27.42;;
22652;SDS011;11493;43.344;26.226;2024-01-15T07:05:01;62.85;;;30.52;;
22652;SDS011;11493;43.344;26.226;2024-01-15T07:07:28;68.82;;;35.38;;
22652;SDS011;11493;43.344;26.226;2024-01-15T07:09:56;61.92;;;30.88;;
22652;SDS011;11493;43.344;26.226;2024-01-15T07:12:23;72.03;;;31.67;;
22652;SDS011;11493;43.344;26.226;2024-01-15T07:14:50;67.78;;;30.73;;
22652;SDS011;11493;43.344;26.226;2024-01-15T07:17:17;62.03;;;30.77;;
22652;SDS011;11493;43.344;26.226;2024-01-15T07:19:44;63.40;;;31.00;;
22652;SDS011;11493;43.344;26.226;2024-01-15T07:22:11;78.22;;;38.53;;
22652;SDS011;11493;43.344;26.226;2024-01-15T07:24:38;76.63;;;38.17;;
22652;SDS011;11493;43.344;26.226;2024-01-15T07:27:05;74.40;;;38.15;;
22652;SDS011;11493;43.344;26.226;2024-01-15T07:29:32;84.10;;;41.70;;
22652;SDS011;11493;43.344;26.226;2024-01-15T07:32:04;77.13;;;39.33;;
22652;SDS011;11493;43.344;26.226;2024-01-15T07:34:31;69.63;;;37.05;;
22652;SDS011;11493;43.344;26.226;2024-01-15T07:36:58;74.55;;;35.30;;
22652;SDS011;11493;43.344;26.226;2024-01-15T07:39:25;71.20;;;35.60;;
22652;SDS011;11493;43.344;26.226;2024-01-15T07:41:52;72.82;;;37.95;;
22652;SDS011;11493;43.344;26.226;2024-01-15T07:44:19;82.68;;;38.90;;
22652;SDS011;11493;43.344;26.226;2024-01-15T07:46:46;69.00;;;36.75;;
22652;SDS011;11493;43.344;26.226;2024-01-15T07:49:13;83.75;;;43.67;;
22652;SDS011;11493;43.344;26.226;2024-01-15T07:51:41;97.53;;;47.63;;
22652;SDS011;11493;43.344;26.226;2024-01-15T07:54:10;90.85;;;45.28;;
22652;SDS011;11493;43.344;26.226;2024-01-15T07:56:54;78.22;;;39.50;;
22652;SDS011;11493;43.344;26.226;2024-01-15T07:59:26;80.95;;;40.97;;
22652;SDS011;11493;43.344;26.226;2024-01-15T08:01:53;85.32;;;41.33;;
22652;SDS011;11493;43.344;26.226;2024-01-15T08:04:21;82.53;;;42.25;;
22652;SDS011;11493;43.344;26.226;2024-01-15T08:06:48;81.05;;;40.78;;
22652;SDS011;11493;43.344;26.226;2024-01-15T08:09:15;71.30;;;38.95;;
22652;SDS011;11493;43.344;26.226;2024-01-15T08:11:42;71.82;;;35.38;;
22652;SDS011;11493;43.344;26.226;2024-01-15T08:14:10;66.45;;;32.85;;
22652;SDS011;11493;43.344;26.226;2024-01-15T08:16:37;61.78;;;30.77;;
22652;SDS011;11493;43.344;26.226;2024-01-15T08:19:04;53.88;;;25.98;;
22652;SDS011;11493;43.344;26.226;2024-01-15T08:21:32;59.95;;;25.80;;
22652;SDS011;11493;43.344;26.226;2024-01-15T08:24:00;62.70;;;28.60;;
22652;SDS011;11493;43.344;26.226;2024-01-15T08:26:29;60.78;;;27.30;;
22652;SDS011;11493;43.344;26.226;2024-01-15T08:28:56;47.53;;;27.10;;
22652;SDS011;11493;43.344;26.226;2024-01-15T08:31:23;69.13;;;34.60;;
22652;SDS011;11493;43.344;26.226;2024-01-15T08:33:51;73.97;;;35.90;;
22652;SDS011;11493;43.344;26.226;2024-01-15T08:36:18;52.13;;;25.77;;
22652;SDS011;11493;43.344;26.226;2024-01-15T08:38:45;60.58;;;29.50;;
22652;SDS011;11493;43.344;26.226;2024-01-15T08:41:12;51.10;;;23.40;;
22652;SDS011;11493;43.344;26.226;2024-01-15T08:43:39;47.70;;;23.80;;
22652;SDS011;11493;43.344;26.226;2024-01-15T08:46:06;47.95;;;22.73;;
22652;SDS011;11493;43.344;26.226;2024-01-15T08:48:34;30.60;;;18.15;;
22652;SDS011;11493;43.344;26.226;2024-01-15T08:51:01;37.38;;;18.90;;
22652;SDS011;11493;43.344;26.226;2024-01-15T08:53:28;29.15;;;15.95;;
22652;SDS011;11493;43.344;26.226;2024-01-15T08:55:55;31.25;;;13.90;;
22652;SDS011;11493;43.344;26.226;2024-01-15T08:58:23;14.63;;;9.07;;
22652;SDS011;11493;43.344;26.226;2024-01-15T09:00:50;41.78;;;15.90;;
22652;SDS011;11493;43.344;26.226;2024-01-15T09:03:17;38.17;;;16.00;;
22652;SDS011;11493;43.344;26.226;2024-01-15T09:05:44;51.75;;;23.17;;
22652;SDS011;11493;43.344;26.226;2024-01-15T09:08:12;49.28;;;20.02;;
22652;SDS011;11493;43.344;26.226;2024-01-15T09:10:39;48.22;;;25.05;;
22652;SDS011;11493;43.344;26.226;2024-01-15T09:13:07;30.15;;;16.48;;
22652;SDS011;11493;43.344;26.226;2024-01-15T09:15:34;37.65;;;19.80;;
22652;SDS011;11493;43.344;26.226;2024-01-15T09:18:01;39.63;;;19.67;;
22652;SDS011;11493;43.344;26.226;2024-01-15T09:20:33;37.83;;;19.10;;
22652;SDS011;11493;43.344;26.226;2024-01-15T09:23:00;34.55;;;17.17;;
22652;SDS011;11493;43.344;26.226;2024-01-15T09:25:27;29.25;;;14.27;;
22652;SDS011;11493;43.344;26.226;2024-01-15T09:27:54;25.60;;;13.68;;
22652;SDS011;11493;43.344;26.226;2024-01-15T09:30:21;23.02;;;12.57;;
22652;SDS011;11493;43.344;26.226;2024-01-15T09:32:48;22.88;;;13.57;;
22652;SDS011;11493;43.344;26.226;2024-01-15T09:35:15;27.45;;;13.50;;
22652;SDS011;11493;43.344;26.226;2024-01-15T09:37:42;26.55;;;15.32;;
22652;SDS011;11493;43.344;26.226;2024-01-15T09:42:44;30.05;;;15.07;;
22652;SDS011;11493;43.344;26.226;2024-01-15T09:45:12;48.90;;;21.85;;
22652;SDS011;11493;43.344;26.226;2024-01-15T09:47:40;27.50;;;15.43;;
22652;SDS011;11493;43.344;26.226;2024-01-15T09:50:12;42.13;;;22.85;;
22652;SDS011;11493;43.344;26.226;2024-01-15T09:52:40;22.73;;;12.88;;
22652;SDS011;11493;43.344;26.226;2024-01-15T09:55:07;20.88;;;9.02;;
22652;SDS011;11493;43.344;26.226;2024-01-15T09:57:36;30.17;;;14.60;;
22652;SDS011;11493;43.344;26.226;2024-01-15T10:00:04;26.52;;;12.43;;
22652;SDS011;11493;43.344;26.226;2024-01-15T10:02:34;39.90;;;20.95;;
22652;SDS011;11493;43.344;26.226;2024-01-15T10:05:02;36.33;;;17.67;;
22652;SDS011;11493;43.344;26.226;2024-01-15T10:07:29;38.65;;;19.10;;
22652;SDS011;11493;43.344;26.226;2024-01-15T10:10:00;65.00;;;25.88;;
22652;SDS011;11493;43.344;26.226;2024-01-15T10:12:26;42.45;;;15.63;;
22652;SDS011;11493;43.344;26.226;2024-01-15T10:14:55;32.45;;;12.05;;
22652;SDS011;11493;43.344;26.226;2024-01-15T10:17:23;30.98;;;13.27;;
22652;SDS011;11493;43.344;26.226;2024-01-15T10:19:53;28.52;;;13.85;;
22652;SDS011;11493;43.344;26.226;2024-01-15T10:22:20;24.45;;;10.77;;
22652;SDS011;11493;43.344;26.226;2024-01-15T10:24:47;8.50;;;5.78;;
22652;SDS011;11493;43.344;26.226;2024-01-15T10:27:15;21.98;;;11.57;;
22652;SDS011;11493;43.344;26.226;2024-01-15T10:29:42;17.42;;;9.32;;
22652;SDS011;11493;43.344;26.226;2024-01-15T10:32:10;20.65;;;8.50;;
22652;SDS011;11493;43.344;26.226;2024-01-15T10:34:38;13.50;;;6.97;;
22652;SDS011;11493;43.344;26.226;2024-01-15T10:37:08;18.33;;;6.15;;
22652;SDS011;11493;43.344;26.226;2024-01-15T10:39:35;14.45;;;8.57;;
22652;SDS011;11493;43.344;26.226;2024-01-15T10:42:04;21.35;;;11.20;;
22652;SDS011;11493;43.344;26.226;2024-01-15T10:44:31;26.38;;;14.68;;
22652;SDS011;11493;43.344;26.226;2024-01-15T10:46:58;33.95;;;17.88;;
22652;SDS011;11493;43.344;26.226;2024-01-15T10:49:25;35.75;;;17.30;;
22652;SDS011;11493;43.344;26.226;2024-01-15T10:52:23;41.70;;;20.35;;
22652;SDS011;11493;43.344;26.226;2024-01-15T10:54:50;43.58;;;18.77;;
22652;SDS011;11493;43.344;26.226;2024-01-15T10:57:19;37.85;;;17.98;;
22652;SDS011;11493;43.344;26.226;2024-01-15T10:59:48;50.13;;;19.30;;
22652;SDS011;11493;43.344;26.226;2024-01-15T11:02:16;25.17;;;11.57;;
22652;SDS011;11493;43.344;26.226;2024-01-15T11:04:43;31.38;;;15.95;;
22652;SDS011;11493;43.344;26.226;2024-01-15T11:07:10;23.00;;;11.07;;
22652;SDS011;11493;43.344;26.226;2024-01-15T11:09:38;24.63;;;9.15;;
22652;SDS011;11493;43.344;26.226;2024-01-15T11:12:12;40.60;;;17.30;;
22652;SDS011;11493;43.344;26.226;2024-01-15T11:14:40;28.80;;;11.82;;
22652;SDS011;11493;43.344;26.226;2024-01-15T11:17:15;27.45;;;10.63;;
22652;SDS011;11493;43.344;26.226;2024-01-15T11:27:43;43.20;;;19.00;;
22652;SDS011;11493;43.344;26.226;2024-01-15T11:30:11;36.85;;;16.95;;
22652;SDS011;11493;43.344;26.226;2024-01-15T11:32:39;26.55;;;13.65;;
22652;SDS011;11493;43.344;26.226;2024-01-15T11:35:08;54.83;;;27.60;;
22652;SDS011;11493;43.344;26.226;2024-01-15T11:40:21;23.52;;;13.32;;
22652;SDS011;11493;43.344;26.226;2024-01-15T11:42:49;47.65;;;27.05;;
22652;SDS011;11493;43.344;26.226;2024-01-15T11:45:19;49.70;;;24.35;;
22652;SDS011;11493;43.344;26.226;2024-01-15T11:50:40;58.63;;;32.13;;
22652;SDS011;11493;43.344;26.226;2024-01-15T11:53:43;66.72;;;32.17;;
22652;SDS011;11493;43.344;26.226;2024-01-15T11:56:23;28.10;;;11.48;;
22652;SDS011;11493;43.344;26.226;2024-01-15T11:58:51;42.08;;;20.90;;
22652;SDS011;11493;43.344;26.226;2024-01-15T12:01:18;38.03;;;17.52;;
22652;SDS011;11493;43.344;26.226;2024-01-15T12:03:47;19.85;;;11.65;;
22652;SDS011;11493;43.344;26.226;2024-01-15T12:06:14;64.20;;;31.40;;
22652;SDS011;11493;43.344;26.226;2024-01-15T12:08:41;29.83;;;11.65;;
22652;SDS011;11493;43.344;26.226;2024-01-15T12:11:10;19.83;;;11.50;;
22652;SDS011;11493;43.344;26.226;2024-01-15T12:13:40;29.13;;;14.40;;
22652;SDS011;11493;43.344;26.226;2024-01-15T12:16:07;19.33;;;9.93;;
22652;SDS011;11493;43.344;26.226;2024-01-15T12:18:35;64.07;;;29.58;;
22652;SDS011;11493;43.344;26.226;2024-01-15T12:21:03;36.17;;;20.05;;
22652;SDS011;11493;43.344;26.226;2024-01-15T12:23:30;33.33;;;14.68;;
22652;SDS011;11493;43.344;26.226;2024-01-15T12:25:57;23.58;;;13.00;;
22652;SDS011;11493;43.344;26.226;2024-01-15T12:28:27;24.13;;;11.10;;
22652;SDS011;11493;43.344;26.226;2024-01-15T12:30:55;26.58;;;13.70;;
22652;SDS011;11493;43.344;26.226;2024-01-15T12:33:22;24.48;;;13.15;;
22652;SDS011;11493;43.344;26.226;2024-01-15T12:35:49;14.80;;;6.22;;
22652;SDS011;11493;43.344;26.226;2024-01-15T12:38:19;17.50;;;9.68;;
22652;SDS011;11493;43.344;26.226;2024-01-15T12:40:47;27.50;;;9.85;;
22652;SDS011;11493;43.344;26.226;2024-01-15T12:43:14;11.48;;;6.13;;
22652;SDS011;11493;43.344;26.226;2024-01-15T12:45:41;5.60;;;3.85;;
22652;SDS011;11493;43.344;26.226;2024-01-15T12:48:09;3.65;;;2.40;;
22652;SDS011;11493;43.344;26.226;2024-01-15T12:50:37;4.15;;;2.47;;
22652;SDS011;11493;43.344;26.226;2024-01-15T12:53:04;4.82;;;2.28;;
22652;SDS011;11493;43.344;26.226;2024-01-15T12:55:30;5.30;;;3.63;;
22652;SDS011;11493;43.344;26.226;2024-01-15T12:57:57;11.55;;;3.40;;
22652;SDS011;11493;43.344;26.226;2024-01-15T13:00:25;10.65;;;7.68;;
22652;SDS011;11493;43.344;26.226;2024-01-15T13:02:53;8.38;;;5.68;;
22652;SDS011;11493;43.344;26.226;2024-01-15T13:05:29;7.45;;;5.93;;
22652;SDS011;11493;43.344;26.226;2024-01-15T13:07:58;12.45;;;10.07;;
22652;SDS011;11493;43.344;26.226;2024-01-15T13:10:25;17.17;;;5.90;;
22652;SDS011;11493;43.344;26.226;2024-01-15T13:12:56;5.70;;;3.63;;
22652;SDS011;11493;43.344;26.226;2024-01-15T13:15:23;6.75;;;3.13;;
22652;SDS011;11493;43.344;26.226;2024-01-15T13:17:50;4.05;;;3.20;;
22652;SDS011;11493;43.344;26.226;2024-01-15T13:20:17;12.70;;;6.50;;
22652;SDS011;11493;43.344;26.226;2024-01-15T13:22:44;8.90;;;3.53;;
22652;SDS011;11493;43.344;26.226;2024-01-15T13:25:12;14.98;;;5.25;;
22652;SDS011;11493;43.344;26.226;2024-01-15T13:27:39;9.27;;;5.50;;
22652;SDS011;11493;43.344;26.226;2024-01-15T13:30:08;20.35;;;16.88;;
22652;SDS011;11493;43.344;26.226;2024-01-15T13:32:36;24.42;;;10.88;;
22652;SDS011;11493;43.344;26.226;2024-01-15T13:35:03;20.85;;;8.48;;
22652;SDS011;11493;43.344;26.226;2024-01-15T13:37:34;10.60;;;6.82;;
22652;SDS011;11493;43.344;26.226;2024-01-15T13:40:01;22.35;;;6.10;;
22652;SDS011;11493;43.344;26.226;2024-01-15T13:42:27;33.67;;;17.08;;
22652;SDS011;11493;43.344;26.226;2024-01-15T13:44:55;25.42;;;11.93;;
22652;SDS011;11493;43.344;26.226;2024-01-15T13:47:21;17.35;;;8.38;;
22652;SDS011;11493;43.344;26.226;2024-01-15T13:49:48;9.18;;;6.53;;
22652;SDS011;11493;43.344;26.226;2024-01-15T13:52:16;20.08;;;6.03;;
22652;SDS011;11493;43.344;26.226;2024-01-15T13:54:44;16.17;;;7.00;;
22652;SDS011;11493;43.344;26.226;2024-01-15T13:57:16;10.05;;;3.83;;
22652;SDS011;11493;43.344;26.226;2024-01-15T13:59:47;12.27;;;3.75;;
22652;SDS011;11493;43.344;26.226;2024-01-15T14:02:15;11.18;;;4.97;;
22652;SDS011;11493;43.344;26.226;2024-01-15T14:04:47;13.95;;;4.53;;
22652;SDS011;11493;43.344;26.226;2024-01-15T14:07:15;28.33;;;4.30;;
22652;SDS011;11493;43.344;26.226;2024-01-15T14:09:42;25.67;;;10.10;;
22652;SDS011;11493;43.344;26.226;2024-01-15T14:12:09;12.25;;;5.35;;
22652;SDS011;11493;43.344;26.226;2024-01-15T14:14:36;14.98;;;4.70;;
22652;SDS011;11493;43.344;26.226;2024-01-15T14:17:03;8.77;;;5.13;;
22652;SDS011;11493;43.344;26.226;2024-01-15T14:19:30;14.05;;;7.07;;
22652;SDS011;11493;43.344;26.226;2024-01-15T14:21:57;7.68;;;5.20;;
22652;SDS011;11493;43.344;26.226;2024-01-15T14:24:24;10.40;;;5.40;;
22652;SDS011;11493;43.344;26.226;2024-01-15T14:26:52;13.27;;;5.07;;
22652;SDS011;11493;43.344;26.226;2024-01-15T14:29:19;21.67;;;7.07;;
22652;SDS011;11493;43.344;26.226;2024-01-15T14:31:49;19.45;;;7.47;;